Latest Weather Observations for Maria Island

IDT60901

Issued at 7:31 am EDT Tuesday 13 November 2018 (issued every 10 minutes, with the page automatically refreshed every 10 minutes)

About weather observations | Map of Hobart area stations | Latest observations for Hobart area | Other Formats
Station Details ID: 092124 Name: MARIA ISLAND (POINT LESUEUR) Lat: -42.66 Lon: 148.02 Height: 28.0 m
Data from the previous 72 hours. | See also: Recent months at Maria Island
Date/Time
EDT
Temp
°C
App
Temp
°C
Dew
Point
°C
Rel
Hum
%
Delta-T
°C
Wind Press
QNH
hPa
Press
MSL
hPa
Rain since
9am
mm
Dir  Spd
km/h
Gust
km/h
Spd
kts
Gust
kts
13/07:30am 16.3 10.8 12.3 77 2.2 N 33 37 18 20 1009.8 1009.8 0.0
13/07:00am 16.5 10.9 12.1 75 2.4 N 33 39 18 21 1009.8 1009.8 0.0
13/06:30am 16.4 10.9 11.8 74 2.5 NNE 32 35 17 19 1010.1 1010.1 0.0
13/06:00am 16.3 10.8 11.9 75 2.4 N 32 33 17 18 1010.1 1010.1 0.0
13/05:30am 16.1 10.7 12.1 77 2.2 N 32 35 17 19 1010.2 1010.2 0.0
13/05:00am 15.7 10.4 12.5 81 1.8 N 32 35 17 19 1010.2 1010.2 0.0
13/04:30am 15.7 10.4 12.6 82 1.7 N 32 35 17 19 1010.3 1010.3 0.0
13/04:00am 16.4 11.4 12.2 76 2.3 N 30 33 16 18 1010.6 1010.6 0.0
13/03:30am 15.8 11.6 13.6 87 1.2 N 28 32 15 17 1011.1 1011.1 0.0
13/03:00am 15.4 10.4 13.9 91 0.8 N 33 39 18 21 1011.4 1011.4 0.0
13/02:30am 15.1 8.1 13.8 92 0.7 N 43 50 23 27 1011.3 1011.3 0.0
13/02:00am 15.3 8.8 14.0 92 0.7 N 41 50 22 27 1011.5 1011.5 0.0
13/01:30am 15.4 8.4 13.8 90 0.9 N 43 50 23 27 1012.4 1012.4 0.0
13/01:00am 15.7 9.2 13.9 89 1.0 N 41 46 22 25 1012.6 1012.6 0.0
13/12:30am 15.5 9.3 13.7 89 1.0 N 39 44 21 24 1013.2 1013.2 0.0
13/12:00am 15.1 9.6 13.6 91 0.8 N 35 39 19 21 1013.7 1013.7 0.0
 
Date/Time
EDT
Temp
°C
App
Temp
°C
Dew
Point
°C
Rel
Hum
%
Delta-T
°C
Wind Press
QNH
hPa
Press
MSL
hPa
Rain since
9am
mm
Dir  Spd
km/h
Gust
km/h
Spd
kts
Gust
kts
12/11:30pm 15.0 9.8 13.5 91 0.8 N 33 37 18 20 1014.1 1014.1 0.0
12/11:00pm 15.1 11.1 13.1 88 1.1 N 26 30 14 16 1014.9 1014.9 0.0
12/10:30pm 15.9 12.5 13.7 87 1.2 N 24 28 13 15 1015.3 1015.3 0.0
12/10:00pm 15.3 12.6 13.5 89 1.0 N 20 24 11 13 1015.9 1015.9 0.0
12/09:30pm 15.2 12.6 13.2 88 1.1 N 19 20 10 11 1016.1 1016.1 0.0
12/09:00pm 15.3 12.5 13.2 87 1.2 N 20 22 11 12 1016.2 1016.2 0.0
12/08:30pm 15.5 12.6 13.0 85 1.4 N 20 22 11 12 1016.1 1016.1 0.0
12/08:00pm 15.4 13.1 12.9 85 1.4 N 17 19 9 10 1015.9 1015.9 0.0
12/07:30pm 15.7 13.7 12.6 82 1.7 N 15 19 8 10 1016.0 1016.0 0.0
12/07:00pm 15.8 13.1 12.9 83 1.6 N 19 24 10 13 1016.1 1016.1 0.0
12/06:30pm 15.5 12.7 12.6 83 1.6 NNW 19 20 10 11 1016.2 1016.2 0.0
12/06:00pm 16.3 13.2 12.1 76 2.3 N 20 22 11 12 1016.0 1016.0 0.0
12/05:30pm 16.9 13.3 12.0 73 2.7 N 22 26 12 14 1016.2 1016.2 0.0
12/05:00pm 16.8 13.6 11.9 73 2.7 N 20 22 11 12 1016.3 1016.3 0.0
12/04:30pm 16.9 15.1 12.0 73 2.7 NNW 13 17 7 9 1016.8 1016.8 0.0
12/04:00pm 16.9 14.5 11.4 70 3.0 N 15 19 8 10 1016.8 1016.8 0.0
12/03:30pm 16.6 12.8 11.3 71 2.9 N 22 28 12 15 1016.9 1016.9 0.0
12/03:00pm 16.8 13.0 11.1 69 3.1 N 22 26 12 14 1017.1 1017.1 0.0
12/02:30pm 16.9 11.9 11.0 68 3.2 N 28 30 15 16 1017.3 1017.3 0.0
12/02:00pm 17.5 12.1 10.9 65 3.5 N 30 32 16 17 1017.4 1017.4 0.0
12/01:30pm 18.6 12.9 9.7 56 4.7 N 30 35 16 19 1017.5 1017.5 0.0
12/01:00pm 18.9 14.1 10.2 57 4.7 NNE 26 32 14 17 1017.6 1017.6 0.0
12/12:30pm 18.0 12.9 9.1 56 4.6 NNE 26 33 14 18 1017.8 1017.8 0.0
12/12:00pm 18.9 13.6 8.3 50 5.5 NNE 26 32 14 17 1018.3 1018.3 0.0
12/11:30am 18.5 13.2 8.5 52 5.2 NNE 26 32 14 17 1018.8 1018.8 0.0
12/11:00am 18.0 12.0 8.6 54 4.8 N 30 35 16 19 1019.2 1019.2 0.0
12/10:30am 16.8 10.9 9.0 60 4.0 N 30 32 16 17 1019.8 1019.8 0.0
12/10:00am 15.8 10.7 9.2 65 3.4 N 26 32 14 17 1020.2 1020.2 0.0
12/09:30am 16.0 10.8 8.7 62 3.7 N 26 32 14 17 1020.4 1020.4 0.0
12/09:00am 15.2 10.8 8.9 66 3.2 N 22 26 12 14 1020.9 1020.9 0.0
12/08:30am 15.0 11.5 8.7 66 3.2 N 17 19 9 10 1021.1 1021.1 0.0
12/08:00am 13.9 10.8 8.7 71 2.6 N 15 19 8 10 1021.4 1021.4 0.0
12/07:30am 13.2 10.1 8.9 75 2.2 NNW 15 19 8 10 1021.5 1021.5 0.0
12/07:00am 13.2 9.7 8.7 74 2.2 N 17 19 9 10 1021.4 1021.4 0.0
12/06:30am 12.9 9.1 9.2 78 1.9 N 19 22 10 12 1021.3 1021.3 0.0
12/06:00am 11.9 9.8 9.6 86 1.2 NNE 11 13 6 7 1021.3 1021.3 0.0
12/05:30am 11.8 9.2 9.5 86 1.2 NNE 13 17 7 9 1021.1 1021.1 0.0
12/05:00am 12.3 9.8 9.7 84 1.3 N 13 15 7 8 1021.2 1021.2 0.0
12/04:30am 12.4 9.9 9.8 84 1.3 N 13 17 7 9 1021.2 1021.2 0.0
12/04:00am 12.7 9.8 9.7 82 1.5 N 15 17 8 9 1021.5 1021.5 0.0
12/03:30am 13.0 10.7 10.4 84 1.3 NNE 13 17 7 9 1021.3 1021.3 0.0
12/03:00am 13.4 10.5 10.9 85 1.3 N 17 20 9 11 1021.4 1021.4 0.0
12/02:30am 13.7 10.5 11.2 85 1.3 N 19 20 10 11 1021.6 1021.6 0.0
12/02:00am 14.0 9.3 10.8 81 1.7 NNE 26 30 14 16 1021.7 1021.7 0.0
12/01:30am 13.9 9.8 10.1 78 2.0 NNE 22 28 12 15 1021.9 1021.9 0.0
12/01:00am 13.9 10.4 10.1 78 2.0 NNE 19 22 10 12 1022.3 1022.3 0.0
12/12:30am 13.9 11.5 9.9 77 2.1 NNE 13 19 7 10 1022.7 1022.7 0.0
12/12:00am 13.5 10.7 10.1 80 1.8 NE 15 19 8 10 1022.5 1022.5 0.0
 
Date/Time
EDT
Temp
°C
App
Temp
°C
Dew
Point
°C
Rel
Hum
%
Delta-T
°C
Wind Press
QNH
hPa
Press
MSL
hPa
Rain since
9am
mm
Dir  Spd
km/h
Gust
km/h
Spd
kts
Gust
kts
11/11:30pm 12.3 10.0 9.1 81 1.6 ENE 11 15 6 8 1022.7 1022.7 0.0
11/11:00pm 13.0 10.5 9.6 80 1.7 E 13 17 7 9 1023.2 1023.2 0.0
11/10:30pm 12.8 9.8 9.3 79 1.8 E 15 20 8 11 1023.3 1023.3 0.0
11/10:00pm 12.6 9.6 9.1 79 1.8 E 15 20 8 11 1023.4 1023.4 0.0
11/09:30pm 12.6 9.1 8.9 78 1.9 E 17 20 9 11 1023.3 1023.3 0.0
11/09:00pm 12.9 9.8 8.8 76 2.0 E 15 19 8 10 1023.3 1023.3 0.0
11/08:30pm 12.9 9.4 8.8 76 2.1 E 17 22 9 12 1022.9 1022.9 0.0
11/08:00pm 12.8 8.7 8.7 76 2.0 ESE 20 24 11 13 1022.5 1022.5 0.0
11/07:30pm 13.0 8.5 8.5 74 2.2 ESE 22 26 12 14 1022.2 1022.2 0.0
11/07:00pm 13.2 8.7 8.5 73 2.3 ESE 22 28 12 15 1021.9 1021.9 0.0
11/06:30pm 13.5 9.0 8.4 71 2.5 ESE 22 30 12 16 1021.6 1021.6 0.0
11/06:00pm 13.6 8.8 8.7 72 2.5 ESE 24 30 13 16 1021.6 1021.6 0.0
11/05:30pm 13.5 8.6 8.6 72 2.5 ESE 24 30 13 16 1021.6 1021.6 0.0
11/05:00pm 14.3 9.6 9.1 71 2.6 ESE 24 30 13 16 1021.4 1021.4 0.0
11/04:30pm 13.6 9.1 8.4 71 2.6 ESE 22 30 12 16 1021.6 1021.6 0.0
11/04:00pm 14.3 9.4 8.5 68 2.9 ESE 24 30 13 16 1021.5 1021.5 0.0
11/03:30pm 14.8 10.0 8.7 67 3.1 ESE 24 32 13 17 1021.4 1021.4 0.0
11/03:00pm 15.2 10.4 8.7 65 3.3 ESE 24 32 13 17 1021.2 1021.2 0.0
11/02:30pm 15.4 10.3 9.3 67 3.1 ESE 26 32 14 17 1021.1 1021.1 0.0
11/02:00pm 15.0 9.8 8.9 67 3.1 ESE 26 32 14 17 1021.1 1021.1 0.0
11/01:30pm 14.9 9.8 9.3 69 2.9 ESE 26 32 14 17 1020.8 1020.8 0.0
11/01:29pm 15.0 9.6 9.4 69 2.9 ESE 28 32 15 17 1020.8 1020.8 0.0
11/01:00pm 17.1 14.9 6.3 49 5.3 S 7 13 4 7 1020.7 1020.7 0.0
11/12:30pm 16.6 13.7 6.7 52 4.9 ESE 11 17 6 9 1020.6 1020.6 0.0
11/12:00pm 16.0 13.0 5.9 51 4.9 ESE 11 15 6 8 1020.7 1020.7 0.0
11/11:30am 16.0 12.8 6.7 54 4.6 ESE 13 20 7 11 1020.7 1020.7 0.0
11/11:00am 15.9 13.7 6.1 52 4.7 SSE 7 9 4 5 1020.7 1020.7 0.0
11/10:30am 15.7 13.5 6.2 53 4.6 SSE 7 11 4 6 1020.6 1020.6 0.0
11/10:00am 15.7 13.7 6.4 54 4.5 ENE 6 7 3 4 1020.4 1020.4 0.0
11/09:30am 14.8 12.8 6.4 57 4.1 NNE 6 9 3 5 1020.2 1020.2 0.0
11/09:00am 14.5 12.2 7.5 63 3.4 NNE 9 11 5 6 1020.1 1020.1 0.0
11/08:30am 14.0 11.8 7.8 66 3.1 NNW 9 11 5 6 1019.9 1019.9 0.0
11/08:00am 13.4 10.7 7.2 66 3.0 N 11 13 6 7 1019.6 1019.6 0.0
11/07:30am 12.6 10.6 6.9 68 2.7 N 7 11 4 6 1019.4 1019.4 0.0
11/07:00am 11.5 10.3 6.6 72 2.3 NW 2 6 1 3 1019.3 1019.3 0.0
11/06:30am 11.5 8.8 7.2 75 2.1 NW 11 15 6 8 1018.9 1018.9 0.0
11/06:00am 11.2 8.1 7.3 77 1.9 NW 13 15 7 8 1018.2 1018.2 0.0
11/05:30am 11.4 9.8 7.9 79 1.7 NW 6 9 3 5 1017.9 1017.9 0.0
11/05:00am 11.6 9.9 8.3 80 1.6 NNW 7 11 4 6 1017.5 1017.5 0.0
11/04:30am 11.3 9.9 9.0 86 1.1 NNW 6 7 3 4 1017.3 1017.3 0.0
11/04:00am 10.5 9.5 8.9 90 0.8 N 4 6 2 3 1017.0 1017.0 0.0
11/03:30am 11.1 11.0 9.4 89 0.9 CALM 0 2 0 1 1016.8 1016.8 0.0
11/03:00am 10.8 10.2 9.1 89 0.8 WNW 2 4 1 2 1016.7 1016.7 0.0
11/02:30am 10.9 9.9 9.0 88 0.9 WNW 4 7 2 4 1016.5 1016.5 0.0
11/02:00am 11.4 10.2 9.5 88 1.0 WNW 6 7 3 4 1016.4 1016.4 0.0
11/01:30am 11.2 9.8 8.9 86 1.1 WNW 6 7 3 4 1016.5 1016.5 0.0
11/01:00am 11.9 11.7 9.1 83 1.4 CALM 0 0 0 0 1016.5 1016.5 0.0
11/12:30am 12.4 11.9 9.2 81 1.6 NNW 2 4 1 2 1016.7 1016.7 0.0
11/12:00am 12.5 12.4 9.3 81 1.6 CALM 0 0 0 0 1016.5 1016.5 0.0
 
Date/Time
EDT
Temp
°C
App
Temp
°C
Dew
Point
°C
Rel
Hum
%
Delta-T
°C
Wind Press
QNH
hPa
Press
MSL
hPa
Rain since
9am
mm
Dir  Spd
km/h
Gust
km/h
Spd
kts
Gust
kts
10/11:30pm 12.6 11.4 9.6 82 1.5 S 6 7 3 4 1016.5 1016.5 0.0
10/11:00pm 12.5 12.1 9.7 83 1.4 ENE 2 4 1 2 1016.6 1016.6 0.0
10/10:30pm 12.4 9.9 9.6 83 1.4 SSE 13 17 7 9 1016.3 1016.3 0.0
10/10:00pm 12.7 10.6 9.9 83 1.4 SSE 11 17 6 9 1016.3 1016.3 0.0
10/09:30pm 12.6 9.1 10.1 85 1.3 SSE 19 22 10 12 1016.0 1016.0 0.0
10/09:00pm 12.7 9.2 10.2 85 1.3 SSE 19 22 10 12 1015.7 1015.7 0.0
10/08:30pm 12.6 8.5 10.1 85 1.3 S 22 28 12 15 1015.3 1015.3 0.0
10/08:00pm 13.0 9.8 10.0 82 1.5 SSE 17 26 9 14 1014.9 1014.9 0.0
10/07:30pm 13.6 10.0 10.0 79 1.9 SSE 19 22 10 12 1014.5 1014.5 0.0
10/07:00pm 15.1 12.1 10.5 74 2.4 SSW 17 20 9 11 1014.2 1014.2 0.0
10/06:30pm 16.4 14.3 8.4 59 4.1 S 9 13 5 7 1013.9 1013.9 0.0
10/06:00pm 16.0 14.1 7.5 57 4.2 NNW 7 9 4 5 1013.8 1013.8 0.0
10/05:30pm 16.0 14.3 7.7 58 4.2 WSW 6 7 3 4 1013.5 1013.5 0.0
10/05:00pm 16.1 14.1 8.8 62 3.7 N 9 13 5 7 1013.3 1013.3 0.0
10/04:30pm 16.2 15.5 8.4 60 4.0 WNW 2 6 1 3 1013.3 1013.3 0.0
10/04:00pm 16.4 15.1 9.3 63 3.7 NW 6 13 3 7 1013.3 1013.3 0.0
10/03:30pm 16.4 13.6 8.6 60 4.0 ESE 13 17 7 9 1013.4 1013.4 0.0
10/03:00pm 17.3 13.5 7.6 53 4.9 ESE 17 20 9 11 1013.4 1013.4 0.0
10/02:30pm 17.4 13.5 7.2 51 5.1 ESE 17 20 9 11 1013.4 1013.4 0.0
10/02:00pm 15.9 11.6 7.1 56 4.4 E 19 22 10 12 1013.6 1013.6 0.0
10/01:30pm 16.1 12.2 7.1 55 4.5 ESE 17 20 9 11 1013.8 1013.8 0.0
10/01:00pm 17.0 12.8 7.6 54 4.7 E 19 22 10 12 1013.6 1013.6 0.0
10/12:30pm 17.7 16.1 8.0 53 4.9 NE 6 15 3 8 1013.8 1013.8 0.0
10/12:00pm 16.6 14.7 7.5 55 4.6 SW 7 13 4 7 1014.0 1014.0 0.0
10/11:30am 17.3 15.7 8.2 55 4.6 SE 6 7 3 4 1014.0 1014.0 0.0
10/11:00am 16.2 14.3 7.4 56 4.4 SSE 7 13 4 7 1014.2 1014.2 0.0
10/10:30am 16.2 14.6 8.9 62 3.8 NW 7 13 4 7 1014.3 1014.3 0.0
10/10:00am 15.4 13.5 9.1 66 3.2 NNE 9 13 5 7 1014.4 1014.4 0.0
10/09:30am 14.6 12.7 9.0 69 2.9 N 9 15 5 8 1014.5 1014.5 0.0
10/09:00am 14.0 11.9 9.8 76 2.2 N 11 15 6 8 1014.4 1014.4 1.8
10/08:30am 13.2 9.8 9.1 76 2.1 NNW 17 20 9 11 1014.1 1014.1 1.8
10/08:00am 12.4 9.3 8.7 78 1.8 N 15 19 8 10 1013.9 1013.9 1.8

Latest Capital City Observations: Canberra | Sydney | Melbourne | Brisbane | Adelaide | Perth | Hobart | Darwin

Other Formats:

Comma delimited format used in spreadsheet applications
http://www.bom.gov.au/fwo/IDT60901/IDT60901.95988.axf

JavaScript Object Notation format (JSON) in row-major order
http://www.bom.gov.au/fwo/IDT60901/IDT60901.95988.json